sensor_id;sensor_type;location;lat;lon;timestamp;P1;durP1;ratioP1;P2;durP2;ratioP2
27612;SDS011;15036;48.094;-1.690;2023-02-28T00:00:23;12.10;;;6.60;;
27612;SDS011;15036;48.094;-1.690;2023-02-28T00:02:49;11.23;;;5.65;;
27612;SDS011;15036;48.094;-1.690;2023-02-28T00:05:16;10.73;;;5.68;;
27612;SDS011;15036;48.094;-1.690;2023-02-28T00:07:42;9.57;;;5.70;;
27612;SDS011;15036;48.094;-1.690;2023-02-28T00:10:09;11.27;;;6.38;;
27612;SDS011;15036;48.094;-1.690;2023-02-28T00:12:37;9.50;;;5.85;;
27612;SDS011;15036;48.094;-1.690;2023-02-28T00:15:09;10.77;;;5.60;;
27612;SDS011;15036;48.094;-1.690;2023-02-28T00:17:36;12.38;;;5.95;;
27612;SDS011;15036;48.094;-1.690;2023-02-28T00:20:02;9.73;;;5.65;;
27612;SDS011;15036;48.094;-1.690;2023-02-28T00:22:40;13.18;;;6.00;;
27612;SDS011;15036;48.094;-1.690;2023-02-28T00:25:11;10.55;;;6.18;;
27612;SDS011;15036;48.094;-1.690;2023-02-28T00:27:38;10.43;;;6.43;;
27612;SDS011;15036;48.094;-1.690;2023-02-28T00:30:05;11.38;;;6.07;;
27612;SDS011;15036;48.094;-1.690;2023-02-28T00:32:31;12.35;;;6.30;;
27612;SDS011;15036;48.094;-1.690;2023-02-28T00:34:57;11.43;;;6.43;;
27612;SDS011;15036;48.094;-1.690;2023-02-28T00:37:22;11.45;;;6.15;;
27612;SDS011;15036;48.094;-1.690;2023-02-28T00:39:48;12.98;;;6.60;;
27612;SDS011;15036;48.094;-1.690;2023-02-28T00:42:13;12.00;;;6.05;;
27612;SDS011;15036;48.094;-1.690;2023-02-28T00:44:38;12.73;;;6.53;;
27612;SDS011;15036;48.094;-1.690;2023-02-28T00:47:04;12.27;;;5.68;;
27612;SDS011;15036;48.094;-1.690;2023-02-28T00:49:29;13.55;;;6.18;;
27612;SDS011;15036;48.094;-1.690;2023-02-28T00:51:55;10.73;;;6.00;;
27612;SDS011;15036;48.094;-1.690;2023-02-28T00:54:22;11.80;;;5.82;;
27612;SDS011;15036;48.094;-1.690;2023-02-28T00:56:48;10.60;;;6.00;;
27612;SDS011;15036;48.094;-1.690;2023-02-28T00:59:14;14.73;;;6.75;;
27612;SDS011;15036;48.094;-1.690;2023-02-28T01:01:41;12.70;;;5.72;;
27612;SDS011;15036;48.094;-1.690;2023-02-28T01:04:07;10.60;;;5.80;;
27612;SDS011;15036;48.094;-1.690;2023-02-28T01:06:32;12.95;;;6.30;;
27612;SDS011;15036;48.094;-1.690;2023-02-28T01:08:58;9.45;;;5.40;;
27612;SDS011;15036;48.094;-1.690;2023-02-28T01:11:24;10.15;;;5.85;;
27612;SDS011;15036;48.094;-1.690;2023-02-28T01:13:49;13.32;;;5.47;;
27612;SDS011;15036;48.094;-1.690;2023-02-28T01:16:15;11.07;;;6.18;;
27612;SDS011;15036;48.094;-1.690;2023-02-28T01:18:40;18.05;;;6.45;;
27612;SDS011;15036;48.094;-1.690;2023-02-28T01:21:07;11.27;;;6.00;;
27612;SDS011;15036;48.094;-1.690;2023-02-28T01:23:34;9.70;;;6.10;;
27612;SDS011;15036;48.094;-1.690;2023-02-28T01:26:04;10.38;;;6.45;;
27612;SDS011;15036;48.094;-1.690;2023-02-28T01:28:34;10.13;;;5.95;;
27612;SDS011;15036;48.094;-1.690;2023-02-28T01:30:59;13.65;;;5.63;;
27612;SDS011;15036;48.094;-1.690;2023-02-28T01:33:25;10.30;;;5.82;;
27612;SDS011;15036;48.094;-1.690;2023-02-28T01:35:57;10.93;;;6.20;;
27612;SDS011;15036;48.094;-1.690;2023-02-28T01:38:26;9.85;;;5.50;;
27612;SDS011;15036;48.094;-1.690;2023-02-28T01:40:52;11.25;;;5.95;;
27612;SDS011;15036;48.094;-1.690;2023-02-28T01:43:25;13.20;;;6.05;;
27612;SDS011;15036;48.094;-1.690;2023-02-28T01:45:53;11.95;;;5.90;;
27612;SDS011;15036;48.094;-1.690;2023-02-28T01:48:21;14.18;;;6.55;;
27612;SDS011;15036;48.094;-1.690;2023-02-28T01:50:51;13.00;;;6.13;;
27612;SDS011;15036;48.094;-1.690;2023-02-28T01:53:19;10.68;;;5.97;;
27612;SDS011;15036;48.094;-1.690;2023-02-28T01:55:49;10.60;;;6.10;;
27612;SDS011;15036;48.094;-1.690;2023-02-28T01:58:18;12.90;;;5.97;;
27612;SDS011;15036;48.094;-1.690;2023-02-28T02:00:43;12.10;;;6.57;;
27612;SDS011;15036;48.094;-1.690;2023-02-28T02:03:09;11.20;;;6.68;;
27612;SDS011;15036;48.094;-1.690;2023-02-28T02:05:38;12.63;;;6.53;;
27612;SDS011;15036;48.094;-1.690;2023-02-28T02:08:06;10.98;;;6.25;;
27612;SDS011;15036;48.094;-1.690;2023-02-28T02:10:36;13.77;;;6.38;;
27612;SDS011;15036;48.094;-1.690;2023-02-28T02:36:41;10.85;;;6.75;;
27612;SDS011;15036;48.094;-1.690;2023-02-28T02:42:03;14.43;;;6.88;;
27612;SDS011;15036;48.094;-1.690;2023-02-28T02:44:59;9.80;;;6.00;;
27612;SDS011;15036;48.094;-1.690;2023-02-28T02:49:57;11.07;;;6.70;;
27612;SDS011;15036;48.094;-1.690;2023-02-28T02:52:31;7.65;;;5.07;;
27612;SDS011;15036;48.094;-1.690;2023-02-28T02:55:03;12.27;;;6.68;;
27612;SDS011;15036;48.094;-1.690;2023-02-28T02:57:33;12.02;;;6.68;;
27612;SDS011;15036;48.094;-1.690;2023-02-28T03:00:03;10.43;;;6.13;;
27612;SDS011;15036;48.094;-1.690;2023-02-28T03:02:33;13.52;;;7.20;;
27612;SDS011;15036;48.094;-1.690;2023-02-28T03:05:04;10.25;;;6.68;;
27612;SDS011;15036;48.094;-1.690;2023-02-28T03:07:34;11.07;;;7.40;;
27612;SDS011;15036;48.094;-1.690;2023-02-28T03:09:59;10.70;;;6.85;;
27612;SDS011;15036;48.094;-1.690;2023-02-28T03:12:28;14.98;;;7.47;;
27612;SDS011;15036;48.094;-1.690;2023-02-28T03:15:21;11.27;;;7.50;;
27612;SDS011;15036;48.094;-1.690;2023-02-28T03:23:19;12.10;;;6.85;;
27612;SDS011;15036;48.094;-1.690;2023-02-28T03:28:42;13.23;;;7.38;;
27612;SDS011;15036;48.094;-1.690;2023-02-28T03:34:05;11.50;;;7.10;;
27612;SDS011;15036;48.094;-1.690;2023-02-28T03:36:43;12.10;;;7.55;;
27612;SDS011;15036;48.094;-1.690;2023-02-28T03:39:19;11.20;;;7.55;;
27612;SDS011;15036;48.094;-1.690;2023-02-28T03:41:53;11.80;;;7.60;;
27612;SDS011;15036;48.094;-1.690;2023-02-28T03:44:28;12.00;;;7.30;;
27612;SDS011;15036;48.094;-1.690;2023-02-28T03:47:00;15.70;;;7.57;;
27612;SDS011;15036;48.094;-1.690;2023-02-28T03:49:40;12.55;;;7.78;;
27612;SDS011;15036;48.094;-1.690;2023-02-28T03:52:12;12.57;;;7.53;;
27612;SDS011;15036;48.094;-1.690;2023-02-28T03:54:46;12.90;;;8.10;;
27612;SDS011;15036;48.094;-1.690;2023-02-28T04:00:07;18.15;;;8.25;;
27612;SDS011;15036;48.094;-1.690;2023-02-28T04:02:37;10.93;;;7.65;;
27612;SDS011;15036;48.094;-1.690;2023-02-28T04:05:02;11.93;;;7.88;;
27612;SDS011;15036;48.094;-1.690;2023-02-28T04:07:31;14.88;;;7.85;;
27612;SDS011;15036;48.094;-1.690;2023-02-28T04:09:56;15.45;;;7.95;;
27612;SDS011;15036;48.094;-1.690;2023-02-28T04:12:22;12.40;;;8.07;;
27612;SDS011;15036;48.094;-1.690;2023-02-28T04:14:48;11.65;;;8.30;;
27612;SDS011;15036;48.094;-1.690;2023-02-28T04:17:14;10.55;;;8.30;;
27612;SDS011;15036;48.094;-1.690;2023-02-28T04:19:40;12.45;;;8.45;;
27612;SDS011;15036;48.094;-1.690;2023-02-28T04:22:05;12.02;;;7.88;;
27612;SDS011;15036;48.094;-1.690;2023-02-28T04:24:31;14.57;;;8.75;;
27612;SDS011;15036;48.094;-1.690;2023-02-28T04:26:57;12.88;;;8.63;;
27612;SDS011;15036;48.094;-1.690;2023-02-28T04:29:24;13.10;;;8.90;;
27612;SDS011;15036;48.094;-1.690;2023-02-28T04:31:51;11.93;;;8.27;;
27612;SDS011;15036;48.094;-1.690;2023-02-28T04:34:18;15.60;;;8.88;;
27612;SDS011;15036;48.094;-1.690;2023-02-28T04:36:44;12.40;;;8.70;;
27612;SDS011;15036;48.094;-1.690;2023-02-28T04:39:10;13.50;;;8.77;;
27612;SDS011;15036;48.094;-1.690;2023-02-28T04:41:36;14.90;;;9.60;;
27612;SDS011;15036;48.094;-1.690;2023-02-28T04:44:02;15.38;;;9.85;;
27612;SDS011;15036;48.094;-1.690;2023-02-28T04:46:27;14.98;;;9.10;;
27612;SDS011;15036;48.094;-1.690;2023-02-28T04:48:53;15.52;;;9.68;;
27612;SDS011;15036;48.094;-1.690;2023-02-28T04:51:19;14.60;;;9.45;;
27612;SDS011;15036;48.094;-1.690;2023-02-28T04:53:45;13.63;;;9.27;;
27612;SDS011;15036;48.094;-1.690;2023-02-28T04:56:12;15.05;;;9.98;;
27612;SDS011;15036;48.094;-1.690;2023-02-28T04:58:40;16.60;;;9.45;;
27612;SDS011;15036;48.094;-1.690;2023-02-28T05:01:06;15.27;;;9.80;;
27612;SDS011;15036;48.094;-1.690;2023-02-28T05:03:41;15.27;;;10.48;;
27612;SDS011;15036;48.094;-1.690;2023-02-28T05:06:08;14.10;;;8.85;;
27612;SDS011;15036;48.094;-1.690;2023-02-28T05:08:33;17.55;;;10.05;;
27612;SDS011;15036;48.094;-1.690;2023-02-28T05:10:59;14.77;;;10.35;;
27612;SDS011;15036;48.094;-1.690;2023-02-28T05:13:28;16.73;;;10.15;;
27612;SDS011;15036;48.094;-1.690;2023-02-28T05:15:53;16.00;;;10.50;;
27612;SDS011;15036;48.094;-1.690;2023-02-28T05:18:19;16.38;;;10.02;;
27612;SDS011;15036;48.094;-1.690;2023-02-28T05:20:45;15.23;;;9.95;;
27612;SDS011;15036;48.094;-1.690;2023-02-28T05:23:11;16.10;;;10.25;;
27612;SDS011;15036;48.094;-1.690;2023-02-28T05:25:37;16.77;;;10.05;;
27612;SDS011;15036;48.094;-1.690;2023-02-28T05:28:03;14.75;;;10.50;;
27612;SDS011;15036;48.094;-1.690;2023-02-28T05:30:29;14.50;;;10.32;;
27612;SDS011;15036;48.094;-1.690;2023-02-28T05:32:55;18.67;;;11.13;;
27612;SDS011;15036;48.094;-1.690;2023-02-28T05:35:20;16.23;;;10.73;;
27612;SDS011;15036;48.094;-1.690;2023-02-28T05:37:45;15.80;;;10.65;;
27612;SDS011;15036;48.094;-1.690;2023-02-28T05:40:11;14.27;;;10.02;;
27612;SDS011;15036;48.094;-1.690;2023-02-28T05:42:37;14.52;;;10.57;;
27612;SDS011;15036;48.094;-1.690;2023-02-28T05:45:03;15.60;;;10.35;;
27612;SDS011;15036;48.094;-1.690;2023-02-28T05:47:29;16.27;;;11.07;;
27612;SDS011;15036;48.094;-1.690;2023-02-28T05:49:54;16.75;;;10.68;;
27612;SDS011;15036;48.094;-1.690;2023-02-28T05:52:20;16.95;;;11.55;;
27612;SDS011;15036;48.094;-1.690;2023-02-28T05:54:46;16.65;;;11.05;;
27612;SDS011;15036;48.094;-1.690;2023-02-28T05:57:12;17.83;;;10.95;;
27612;SDS011;15036;48.094;-1.690;2023-02-28T05:59:37;15.10;;;10.73;;
27612;SDS011;15036;48.094;-1.690;2023-02-28T06:02:05;17.10;;;11.25;;
27612;SDS011;15036;48.094;-1.690;2023-02-28T06:04:31;22.08;;;11.45;;
27612;SDS011;15036;48.094;-1.690;2023-02-28T06:06:56;18.50;;;11.60;;
27612;SDS011;15036;48.094;-1.690;2023-02-28T06:09:22;19.00;;;11.70;;
27612;SDS011;15036;48.094;-1.690;2023-02-28T06:11:48;22.30;;;12.65;;
27612;SDS011;15036;48.094;-1.690;2023-02-28T06:14:14;18.55;;;12.07;;
27612;SDS011;15036;48.094;-1.690;2023-02-28T06:16:41;18.48;;;11.85;;
27612;SDS011;15036;48.094;-1.690;2023-02-28T06:19:08;16.85;;;11.82;;
27612;SDS011;15036;48.094;-1.690;2023-02-28T06:21:34;19.90;;;12.48;;
27612;SDS011;15036;48.094;-1.690;2023-02-28T06:24:00;18.25;;;12.15;;
27612;SDS011;15036;48.094;-1.690;2023-02-28T06:26:25;19.92;;;11.95;;
27612;SDS011;15036;48.094;-1.690;2023-02-28T06:28:51;16.85;;;12.10;;
27612;SDS011;15036;48.094;-1.690;2023-02-28T06:31:17;18.88;;;13.20;;
27612;SDS011;15036;48.094;-1.690;2023-02-28T06:33:43;20.52;;;13.52;;
27612;SDS011;15036;48.094;-1.690;2023-02-28T06:36:11;16.42;;;12.15;;
27612;SDS011;15036;48.094;-1.690;2023-02-28T06:38:37;21.55;;;12.73;;
27612;SDS011;15036;48.094;-1.690;2023-02-28T06:41:03;20.08;;;13.30;;
27612;SDS011;15036;48.094;-1.690;2023-02-28T06:43:30;19.83;;;13.85;;
27612;SDS011;15036;48.094;-1.690;2023-02-28T06:45:58;18.38;;;12.70;;
27612;SDS011;15036;48.094;-1.690;2023-02-28T06:48:26;18.80;;;13.60;;
27612;SDS011;15036;48.094;-1.690;2023-02-28T06:50:52;18.58;;;12.48;;
27612;SDS011;15036;48.094;-1.690;2023-02-28T06:53:25;21.23;;;13.40;;
27612;SDS011;15036;48.094;-1.690;2023-02-28T06:55:51;18.92;;;12.65;;
27612;SDS011;15036;48.094;-1.690;2023-02-28T06:58:16;20.17;;;13.88;;
27612;SDS011;15036;48.094;-1.690;2023-02-28T07:00:44;21.13;;;12.93;;
27612;SDS011;15036;48.094;-1.690;2023-02-28T07:03:11;20.10;;;13.75;;
27612;SDS011;15036;48.094;-1.690;2023-02-28T07:05:38;18.67;;;13.18;;
27612;SDS011;15036;48.094;-1.690;2023-02-28T07:08:04;22.27;;;14.52;;
27612;SDS011;15036;48.094;-1.690;2023-02-28T07:10:33;20.80;;;13.73;;
27612;SDS011;15036;48.094;-1.690;2023-02-28T07:13:01;19.63;;;13.82;;
27612;SDS011;15036;48.094;-1.690;2023-02-28T07:15:29;21.95;;;13.55;;
27612;SDS011;15036;48.094;-1.690;2023-02-28T07:17:54;23.58;;;14.57;;
27612;SDS011;15036;48.094;-1.690;2023-02-28T07:20:20;22.30;;;14.88;;
27612;SDS011;15036;48.094;-1.690;2023-02-28T07:22:46;21.55;;;14.57;;
27612;SDS011;15036;48.094;-1.690;2023-02-28T07:27:42;21.15;;;13.82;;
27612;SDS011;15036;48.094;-1.690;2023-02-28T07:30:07;20.90;;;14.50;;
27612;SDS011;15036;48.094;-1.690;2023-02-28T07:32:33;21.65;;;14.98;;
27612;SDS011;15036;48.094;-1.690;2023-02-28T07:35:02;22.13;;;14.32;;
27612;SDS011;15036;48.094;-1.690;2023-02-28T07:37:28;21.02;;;14.43;;
27612;SDS011;15036;48.094;-1.690;2023-02-28T07:39:56;24.55;;;14.90;;
27612;SDS011;15036;48.094;-1.690;2023-02-28T07:42:22;22.00;;;14.85;;
27612;SDS011;15036;48.094;-1.690;2023-02-28T07:44:47;22.48;;;14.95;;
27612;SDS011;15036;48.094;-1.690;2023-02-28T07:47:13;19.20;;;14.25;;
27612;SDS011;15036;48.094;-1.690;2023-02-28T07:49:39;25.98;;;15.48;;
27612;SDS011;15036;48.094;-1.690;2023-02-28T07:52:05;21.25;;;14.68;;
27612;SDS011;15036;48.094;-1.690;2023-02-28T07:54:31;21.65;;;14.63;;
27612;SDS011;15036;48.094;-1.690;2023-02-28T07:56:57;19.98;;;14.73;;
27612;SDS011;15036;48.094;-1.690;2023-02-28T07:59:23;22.20;;;14.60;;
27612;SDS011;15036;48.094;-1.690;2023-02-28T08:01:48;25.73;;;15.32;;
27612;SDS011;15036;48.094;-1.690;2023-02-28T08:04:15;26.45;;;15.65;;
27612;SDS011;15036;48.094;-1.690;2023-02-28T08:06:41;22.58;;;15.55;;
27612;SDS011;15036;48.094;-1.690;2023-02-28T08:09:07;22.23;;;15.10;;
27612;SDS011;15036;48.094;-1.690;2023-02-28T08:11:32;26.92;;;15.32;;
27612;SDS011;15036;48.094;-1.690;2023-02-28T08:13:58;22.42;;;15.23;;
27612;SDS011;15036;48.094;-1.690;2023-02-28T08:16:23;22.05;;;14.75;;
27612;SDS011;15036;48.094;-1.690;2023-02-28T08:18:50;22.90;;;15.70;;
27612;SDS011;15036;48.094;-1.690;2023-02-28T08:21:17;20.17;;;14.65;;
27612;SDS011;15036;48.094;-1.690;2023-02-28T08:23:43;20.45;;;14.50;;
27612;SDS011;15036;48.094;-1.690;2023-02-28T08:26:12;21.17;;;15.00;;
27612;SDS011;15036;48.094;-1.690;2023-02-28T08:28:37;23.95;;;15.10;;
27612;SDS011;15036;48.094;-1.690;2023-02-28T08:31:06;22.83;;;15.45;;
27612;SDS011;15036;48.094;-1.690;2023-02-28T08:33:34;21.80;;;15.13;;
27612;SDS011;15036;48.094;-1.690;2023-02-28T08:35:59;25.48;;;15.48;;
27612;SDS011;15036;48.094;-1.690;2023-02-28T08:38:25;26.02;;;16.42;;
27612;SDS011;15036;48.094;-1.690;2023-02-28T08:40:56;22.88;;;15.40;;
27612;SDS011;15036;48.094;-1.690;2023-02-28T08:43:23;19.98;;;14.20;;
27612;SDS011;15036;48.094;-1.690;2023-02-28T08:45:50;24.40;;;16.13;;
27612;SDS011;15036;48.094;-1.690;2023-02-28T08:48:17;21.42;;;14.75;;
27612;SDS011;15036;48.094;-1.690;2023-02-28T08:50:42;19.40;;;14.20;;
27612;SDS011;15036;48.094;-1.690;2023-02-28T08:53:07;22.17;;;15.40;;
27612;SDS011;15036;48.094;-1.690;2023-02-28T08:55:33;26.05;;;15.38;;
27612;SDS011;15036;48.094;-1.690;2023-02-28T08:57:58;20.10;;;13.63;;
27612;SDS011;15036;48.094;-1.690;2023-02-28T09:00:23;22.85;;;14.77;;
27612;SDS011;15036;48.094;-1.690;2023-02-28T09:02:51;23.58;;;14.50;;
27612;SDS011;15036;48.094;-1.690;2023-02-28T09:05:17;22.45;;;15.45;;
27612;SDS011;15036;48.094;-1.690;2023-02-28T09:07:42;21.52;;;14.90;;
27612;SDS011;15036;48.094;-1.690;2023-02-28T09:10:08;21.83;;;15.60;;
27612;SDS011;15036;48.094;-1.690;2023-02-28T09:12:37;20.92;;;15.00;;
27612;SDS011;15036;48.094;-1.690;2023-02-28T09:15:02;20.50;;;14.63;;
27612;SDS011;15036;48.094;-1.690;2023-02-28T09:17:28;21.75;;;14.65;;
27612;SDS011;15036;48.094;-1.690;2023-02-28T09:19:53;22.58;;;14.77;;
27612;SDS011;15036;48.094;-1.690;2023-02-28T09:22:19;20.45;;;14.82;;
27612;SDS011;15036;48.094;-1.690;2023-02-28T09:24:44;21.65;;;15.57;;
27612;SDS011;15036;48.094;-1.690;2023-02-28T09:27:09;21.15;;;14.32;;
27612;SDS011;15036;48.094;-1.690;2023-02-28T09:29:35;20.42;;;14.52;;
27612;SDS011;15036;48.094;-1.690;2023-02-28T09:32:01;19.65;;;14.57;;
27612;SDS011;15036;48.094;-1.690;2023-02-28T09:34:27;20.42;;;14.45;;
27612;SDS011;15036;48.094;-1.690;2023-02-28T09:36:53;20.63;;;14.25;;
27612;SDS011;15036;48.094;-1.690;2023-02-28T09:39:19;22.98;;;14.50;;
27612;SDS011;15036;48.094;-1.690;2023-02-28T09:41:47;21.63;;;14.70;;
27612;SDS011;15036;48.094;-1.690;2023-02-28T09:44:35;19.77;;;13.57;;
27612;SDS011;15036;48.094;-1.690;2023-02-28T09:47:12;19.58;;;13.25;;
27612;SDS011;15036;48.094;-1.690;2023-02-28T09:52:14;18.63;;;13.20;;
27612;SDS011;15036;48.094;-1.690;2023-02-28T09:54:44;24.27;;;13.50;;
27612;SDS011;15036;48.094;-1.690;2023-02-28T10:08:25;15.23;;;11.07;;
27612;SDS011;15036;48.094;-1.690;2023-02-28T10:10:58;15.95;;;11.05;;
27612;SDS011;15036;48.094;-1.690;2023-02-28T10:16:05;14.98;;;9.88;;
27612;SDS011;15036;48.094;-1.690;2023-02-28T10:18:40;14.02;;;10.10;;
27612;SDS011;15036;48.094;-1.690;2023-02-28T10:21:15;14.95;;;9.75;;
27612;SDS011;15036;48.094;-1.690;2023-02-28T10:23:53;13.23;;;9.07;;
27612;SDS011;15036;48.094;-1.690;2023-02-28T10:26:26;13.15;;;9.70;;
27612;SDS011;15036;48.094;-1.690;2023-02-28T10:28:55;14.35;;;9.00;;
27612;SDS011;15036;48.094;-1.690;2023-02-28T10:31:20;12.85;;;9.07;;
27612;SDS011;15036;48.094;-1.690;2023-02-28T10:33:46;12.75;;;8.23;;
27612;SDS011;15036;48.094;-1.690;2023-02-28T10:36:16;10.73;;;7.22;;
27612;SDS011;15036;48.094;-1.690;2023-02-28T10:38:44;14.50;;;9.68;;
27612;SDS011;15036;48.094;-1.690;2023-02-28T10:43:52;15.10;;;8.90;;
27612;SDS011;15036;48.094;-1.690;2023-02-28T10:46:36;12.05;;;7.28;;
27612;SDS011;15036;48.094;-1.690;2023-02-28T10:49:06;11.73;;;7.45;;
27612;SDS011;15036;48.094;-1.690;2023-02-28T10:51:39;12.35;;;8.73;;
27612;SDS011;15036;48.094;-1.690;2023-02-28T10:54:06;10.80;;;7.40;;
27612;SDS011;15036;48.094;-1.690;2023-02-28T10:56:41;9.85;;;6.80;;
27612;SDS011;15036;48.094;-1.690;2023-02-28T11:05:20;10.68;;;7.47;;
27612;SDS011;15036;48.094;-1.690;2023-02-28T11:07:53;10.93;;;7.28;;
27612;SDS011;15036;48.094;-1.690;2023-02-28T11:10:20;10.10;;;7.07;;
27612;SDS011;15036;48.094;-1.690;2023-02-28T11:12:49;9.13;;;6.28;;
27612;SDS011;15036;48.094;-1.690;2023-02-28T11:15:26;8.70;;;5.80;;
27612;SDS011;15036;48.094;-1.690;2023-02-28T11:18:00;7.53;;;5.15;;
27612;SDS011;15036;48.094;-1.690;2023-02-28T11:20:32;7.15;;;5.10;;
27612;SDS011;15036;48.094;-1.690;2023-02-28T11:22:59;7.30;;;4.80;;
27612;SDS011;15036;48.094;-1.690;2023-02-28T11:27:58;9.43;;;5.45;;
27612;SDS011;15036;48.094;-1.690;2023-02-28T11:30:38;8.18;;;5.18;;
27612;SDS011;15036;48.094;-1.690;2023-02-28T11:35:58;6.03;;;4.30;;
27612;SDS011;15036;48.094;-1.690;2023-02-28T11:38:28;8.15;;;4.30;;
27612;SDS011;15036;48.094;-1.690;2023-02-28T11:52:00;5.82;;;3.70;;
27612;SDS011;15036;48.094;-1.690;2023-02-28T12:02:54;6.40;;;4.45;;
27612;SDS011;15036;48.094;-1.690;2023-02-28T12:05:44;7.03;;;4.03;;
27612;SDS011;15036;48.094;-1.690;2023-02-28T12:27:35;5.93;;;3.90;;
27612;SDS011;15036;48.094;-1.690;2023-02-28T12:30:05;6.10;;;4.00;;
27612;SDS011;15036;48.094;-1.690;2023-02-28T12:33:01;7.45;;;4.38;;
27612;SDS011;15036;48.094;-1.690;2023-02-28T12:35:34;6.45;;;4.38;;
27612;SDS011;15036;48.094;-1.690;2023-02-28T12:39:07;7.18;;;4.88;;
27612;SDS011;15036;48.094;-1.690;2023-02-28T12:43:52;6.50;;;4.28;;
27612;SDS011;15036;48.094;-1.690;2023-02-28T12:46:27;8.40;;;4.57;;
27612;SDS011;15036;48.094;-1.690;2023-02-28T12:49:00;6.20;;;4.03;;
27612;SDS011;15036;48.094;-1.690;2023-02-28T12:51:33;6.72;;;4.10;;
27612;SDS011;15036;48.094;-1.690;2023-02-28T13:02:01;5.47;;;3.80;;
27612;SDS011;15036;48.094;-1.690;2023-02-28T13:07:53;7.97;;;3.95;;
27612;SDS011;15036;48.094;-1.690;2023-02-28T13:10:41;6.43;;;3.63;;
27612;SDS011;15036;48.094;-1.690;2023-02-28T13:13:33;5.32;;;3.42;;
27612;SDS011;15036;48.094;-1.690;2023-02-28T13:18:44;6.60;;;3.83;;
27612;SDS011;15036;48.094;-1.690;2023-02-28T13:21:10;5.40;;;3.67;;
27612;SDS011;15036;48.094;-1.690;2023-02-28T13:31:24;7.18;;;3.85;;
27612;SDS011;15036;48.094;-1.690;2023-02-28T13:36:30;6.00;;;3.80;;
27612;SDS011;15036;48.094;-1.690;2023-02-28T13:44:07;6.78;;;4.20;;
27612;SDS011;15036;48.094;-1.690;2023-02-28T13:47:21;5.32;;;3.97;;
27612;SDS011;15036;48.094;-1.690;2023-02-28T13:49:28;6.37;;;4.33;;
27612;SDS011;15036;48.094;-1.690;2023-02-28T13:54:56;7.47;;;3.95;;
27612;SDS011;15036;48.094;-1.690;2023-02-28T13:57:40;5.85;;;3.83;;
27612;SDS011;15036;48.094;-1.690;2023-02-28T14:05:37;5.82;;;4.10;;
27612;SDS011;15036;48.094;-1.690;2023-02-28T14:08:24;6.93;;;4.38;;
27612;SDS011;15036;48.094;-1.690;2023-02-28T14:10:50;9.05;;;4.00;;
27612;SDS011;15036;48.094;-1.690;2023-02-28T14:13:43;7.25;;;4.50;;
27612;SDS011;15036;48.094;-1.690;2023-02-28T14:16:21;8.48;;;4.15;;
27612;SDS011;15036;48.094;-1.690;2023-02-28T14:18:50;7.60;;;4.20;;
27612;SDS011;15036;48.094;-1.690;2023-02-28T14:21:24;7.70;;;4.05;;
27612;SDS011;15036;48.094;-1.690;2023-02-28T14:26:55;6.50;;;4.35;;
27612;SDS011;15036;48.094;-1.690;2023-02-28T14:32:06;6.07;;;4.47;;
27612;SDS011;15036;48.094;-1.690;2023-02-28T14:37:25;7.18;;;4.80;;
27612;SDS011;15036;48.094;-1.690;2023-02-28T14:39:54;10.15;;;5.93;;
27612;SDS011;15036;48.094;-1.690;2023-02-28T14:42:31;10.02;;;6.43;;
27612;SDS011;15036;48.094;-1.690;2023-02-28T14:45:03;15.90;;;8.70;;
27612;SDS011;15036;48.094;-1.690;2023-02-28T14:47:32;14.30;;;8.25;;
27612;SDS011;15036;48.094;-1.690;2023-02-28T14:50:00;11.80;;;8.00;;
27612;SDS011;15036;48.094;-1.690;2023-02-28T14:52:29;10.85;;;7.38;;
27612;SDS011;15036;48.094;-1.690;2023-02-28T14:54:58;10.80;;;7.47;;
27612;SDS011;15036;48.094;-1.690;2023-02-28T14:57:32;9.48;;;7.07;;
27612;SDS011;15036;48.094;-1.690;2023-02-28T15:00:13;8.75;;;6.72;;
27612;SDS011;15036;48.094;-1.690;2023-02-28T15:02:47;10.70;;;8.25;;
27612;SDS011;15036;48.094;-1.690;2023-02-28T15:07:38;11.55;;;8.10;;
27612;SDS011;15036;48.094;-1.690;2023-02-28T15:12:39;10.35;;;6.43;;
27612;SDS011;15036;48.094;-1.690;2023-02-28T15:15:06;11.95;;;7.20;;
27612;SDS011;15036;48.094;-1.690;2023-02-28T15:17:39;13.13;;;7.10;;
27612;SDS011;15036;48.094;-1.690;2023-02-28T15:20:05;10.90;;;7.80;;
27612;SDS011;15036;48.094;-1.690;2023-02-28T15:22:35;9.35;;;6.95;;
27612;SDS011;15036;48.094;-1.690;2023-02-28T15:25:02;11.98;;;7.63;;
27612;SDS011;15036;48.094;-1.690;2023-02-28T15:27:31;11.13;;;7.47;;
27612;SDS011;15036;48.094;-1.690;2023-02-28T15:30:08;11.98;;;7.78;;
27612;SDS011;15036;48.094;-1.690;2023-02-28T15:33:04;10.95;;;7.85;;
27612;SDS011;15036;48.094;-1.690;2023-02-28T15:35:36;13.15;;;9.48;;
27612;SDS011;15036;48.094;-1.690;2023-02-28T15:40:55;11.13;;;8.52;;
27612;SDS011;15036;48.094;-1.690;2023-02-28T15:45:58;11.45;;;8.90;;
27612;SDS011;15036;48.094;-1.690;2023-02-28T15:50:57;11.90;;;9.75;;
27612;SDS011;15036;48.094;-1.690;2023-02-28T15:53:36;14.35;;;10.00;;
27612;SDS011;15036;48.094;-1.690;2023-02-28T15:56:06;14.40;;;11.23;;
27612;SDS011;15036;48.094;-1.690;2023-02-28T15:58:46;14.00;;;9.77;;
27612;SDS011;15036;48.094;-1.690;2023-02-28T16:01:32;12.52;;;10.68;;
27612;SDS011;15036;48.094;-1.690;2023-02-28T16:04:05;13.80;;;10.55;;
27612;SDS011;15036;48.094;-1.690;2023-02-28T16:06:39;17.80;;;11.90;;
27612;SDS011;15036;48.094;-1.690;2023-02-28T16:09:15;13.40;;;11.07;;
27612;SDS011;15036;48.094;-1.690;2023-02-28T16:11:45;16.20;;;11.70;;
27612;SDS011;15036;48.094;-1.690;2023-02-28T16:14:15;15.05;;;11.60;;
27612;SDS011;15036;48.094;-1.690;2023-02-28T16:16:48;18.52;;;12.35;;
27612;SDS011;15036;48.094;-1.690;2023-02-28T16:19:15;17.05;;;13.05;;
27612;SDS011;15036;48.094;-1.690;2023-02-28T16:21:41;16.60;;;12.77;;
27612;SDS011;15036;48.094;-1.690;2023-02-28T16:24:07;17.80;;;12.70;;
27612;SDS011;15036;48.094;-1.690;2023-02-28T16:26:32;19.25;;;13.88;;
27612;SDS011;15036;48.094;-1.690;2023-02-28T16:28:59;18.38;;;13.55;;
27612;SDS011;15036;48.094;-1.690;2023-02-28T16:31:25;20.38;;;13.07;;
27612;SDS011;15036;48.094;-1.690;2023-02-28T16:33:51;18.92;;;13.38;;
27612;SDS011;15036;48.094;-1.690;2023-02-28T16:36:17;20.08;;;14.95;;
27612;SDS011;15036;48.094;-1.690;2023-02-28T16:38:45;23.42;;;15.75;;
27612;SDS011;15036;48.094;-1.690;2023-02-28T16:41:14;20.77;;;15.43;;
27612;SDS011;15036;48.094;-1.690;2023-02-28T16:43:44;20.80;;;15.88;;
27612;SDS011;15036;48.094;-1.690;2023-02-28T16:46:15;24.17;;;15.82;;
27612;SDS011;15036;48.094;-1.690;2023-02-28T16:48:41;21.05;;;16.17;;
27612;SDS011;15036;48.094;-1.690;2023-02-28T16:51:14;18.70;;;15.27;;
27612;SDS011;15036;48.094;-1.690;2023-02-28T16:53:40;20.90;;;15.13;;
27612;SDS011;15036;48.094;-1.690;2023-02-28T16:56:06;22.25;;;16.05;;
27612;SDS011;15036;48.094;-1.690;2023-02-28T16:58:40;22.00;;;15.85;;
27612;SDS011;15036;48.094;-1.690;2023-02-28T17:01:05;22.20;;;16.55;;
27612;SDS011;15036;48.094;-1.690;2023-02-28T17:03:31;21.67;;;16.48;;
27612;SDS011;15036;48.094;-1.690;2023-02-28T17:05:56;28.17;;;16.45;;
27612;SDS011;15036;48.094;-1.690;2023-02-28T17:08:21;24.60;;;18.00;;
27612;SDS011;15036;48.094;-1.690;2023-02-28T17:10:47;19.77;;;16.25;;
27612;SDS011;15036;48.094;-1.690;2023-02-28T17:13:12;22.02;;;16.83;;
27612;SDS011;15036;48.094;-1.690;2023-02-28T17:15:37;23.25;;;16.88;;
27612;SDS011;15036;48.094;-1.690;2023-02-28T17:18:05;23.20;;;17.17;;
27612;SDS011;15036;48.094;-1.690;2023-02-28T17:20:31;26.90;;;18.48;;
27612;SDS011;15036;48.094;-1.690;2023-02-28T17:22:57;23.92;;;18.42;;
27612;SDS011;15036;48.094;-1.690;2023-02-28T17:25:23;22.70;;;18.23;;